Time;durP1;ratioP1;P1;durP2;ratioP2;P2;SDS_P1;SDS_P2;PMS_P1;PMS_P2;Temp;Humidity;BMP_temperature;BMP_pressure;BME280_temperature;BME280_humidity;BME280_pressure;Samples;Min_cycle;Max_cycle;Signal;HPM_P1;HPM_P2
2023/01/14 00:03:36;;;;;;;8.70;6.60;;;;;;;4.75;91.19;100216.58;215475;1260;72602;-78
2023/01/14 00:08:31;;;;;;;7.60;6.30;;;;;;;4.67;91.31;100214.08;215388;1254;61254;-78
2023/01/14 00:13:23;;;;;;;10.00;7.40;;;;;;;4.66;91.92;100220.41;215488;1255;67406;-78
2023/01/14 00:18:16;;;;;;;10.60;6.90;;;;;;;4.63;91.49;100220.98;215295;1254;61350;-78
2023/01/14 00:23:09;;;;;;;13.20;7.80;;;;;;;4.62;91.94;100226.27;215718;1254;61273;-78
2023/01/14 00:28:02;;;;;;;8.90;7.00;;;;;;;4.61;91.86;100230.55;215571;1257;61375;-78
2023/01/14 00:32:55;;;;;;;11.00;8.30;;;;;;;4.56;91.89;100243.27;215627;1258;61253;-78
2023/01/14 00:37:48;;;;;;;8.10;6.80;;;;;;;4.50;91.83;100244.95;215663;1254;61266;-78
2023/01/14 00:42:41;;;;;;;10.80;8.90;;;;;;;4.45;92.17;100248.04;215627;1254;61230;-78
2023/01/14 00:47:34;;;;;;;10.50;7.20;;;;;;;4.44;92.21;100254.67;215533;1254;61279;-78
2023/01/14 00:52:26;;;;;;;10.60;8.00;;;;;;;4.40;91.87;100258.48;215612;1257;61266;-78
2023/01/14 00:57:21;;;;;;;11.30;9.00;;;;;;;4.34;91.89;100265.33;215681;1257;61363;-78
2023/01/14 01:02:14;;;;;;;12.70;9.50;;;;;;;4.33;92.18;100274.39;215667;1254;61260;-78
2023/01/14 01:07:08;;;;;;;12.40;9.30;;;;;;;4.32;92.39;100277.29;215674;1256;61487;-78
2023/01/14 01:12:03;;;;;;;12.70;10.00;;;;;;;4.37;92.73;100281.91;215803;1254;74630;-78
2023/01/14 01:16:56;;;;;;;13.30;9.50;;;;;;;4.43;92.97;100281.77;215696;1257;72588;-78
2023/01/14 01:21:49;;;;;;;12.10;8.30;;;;;;;4.48;93.14;100276.48;215655;1254;61323;-78
2023/01/14 01:26:45;;;;;;;10.80;9.60;;;;;;;4.53;93.19;100277.68;215662;1254;61419;-78
2023/01/14 01:31:40;;;;;;;12.50;9.70;;;;;;;4.55;93.00;100278.77;215682;1254;61264;-78
2023/01/14 01:36:33;;;;;;;12.10;9.10;;;;;;;4.55;93.02;100282.88;215652;1254;74401;-78
2023/01/14 01:41:31;;;;;;;13.10;8.70;;;;;;;4.55;93.05;100285.81;215651;1254;61247;-78
2023/01/14 01:46:24;;;;;;;17.50;10.50;;;;;;;4.53;92.81;100285.73;215623;1254;61251;-79
2023/01/14 01:51:24;;;;;;;10.00;8.70;;;;;;;4.55;93.23;100279.09;215814;1254;65773;-78
2023/01/14 01:56:22;;;;;;;12.50;9.10;;;;;;;4.57;93.33;100284.48;215721;1254;61368;-78
2023/01/14 02:06:58;;;;;;;11.80;8.80;;;;;;;4.58;93.06;100288.12;208569;1271;949358;-78
2023/01/14 02:12:08;;;;;;;10.30;7.70;;;;;;;4.55;92.61;100288.18;213139;1270;61470;-78
2023/01/14 02:17:10;;;;;;;13.80;9.50;;;;;;;4.51;92.70;100289.77;213516;1272;66546;-78
2023/01/14 02:22:21;;;;;;;12.50;9.40;;;;;;;4.46;92.69;100287.89;213533;1273;62990;-78
2023/01/14 02:27:40;;;;;;;14.10;8.80;;;;;;;4.43;92.99;100293.09;213609;1273;74564;-78
2023/01/14 02:32:53;;;;;;;11.40;8.70;;;;;;;4.37;92.93;100303.70;213538;1273;71258;-78
2023/01/14 02:38:04;;;;;;;13.40;9.10;;;;;;;4.31;92.84;100310.36;213406;1273;61354;-78
2023/01/14 02:48:22;;;;;;;13.80;9.30;;;;;;;4.21;92.66;100323.90;213329;1273;61378;-78
2023/01/14 02:53:18;;;;;;;12.60;9.90;;;;;;;4.17;93.03;100325.48;213238;1273;74265;-78
2023/01/14 02:58:39;;;;;;;11.60;8.30;;;;;;;4.18;93.20;100328.76;213756;1274;71777;-78
2023/01/14 03:03:52;;;;;;;12.50;10.00;;;;;;;4.14;93.10;100336.52;213409;1272;64243;-78
2023/01/14 03:09:01;;;;;;;10.20;8.30;;;;;;;4.13;93.54;100346.58;213479;1272;65942;-78
2023/01/14 03:14:02;;;;;;;14.20;9.00;;;;;;;4.14;93.65;100345.42;213355;1273;61523;-77
2023/01/14 03:19:17;;;;;;;14.20;9.60;;;;;;;4.17;93.76;100346.90;213414;1273;74811;-78
2023/01/14 03:24:17;;;;;;;13.20;8.80;;;;;;;4.16;93.47;100349.29;213409;1273;71296;-78
2023/01/14 03:29:15;;;;;;;11.90;9.70;;;;;;;4.14;93.42;100349.20;213377;1273;61390;-78
2023/01/14 03:34:14;;;;;;;13.40;9.80;;;;;;;4.17;93.60;100353.61;213312;1273;67780;-78
2023/01/14 03:39:13;;;;;;;15.80;10.10;;;;;;;4.18;93.62;100361.54;213078;1273;61921;-78
2023/01/14 03:44:14;;;;;;;16.00;9.80;;;;;;;4.18;93.25;100363.40;213468;1273;74352;-78
2023/01/14 03:49:08;;;;;;;11.40;8.90;;;;;;;4.20;93.22;100374.46;213477;1272;73634;-78
2023/01/14 03:54:24;;;;;;;11.10;9.10;;;;;;;4.21;93.05;100381.02;213315;1273;61288;-78
2023/01/14 03:59:35;;;;;;;13.20;9.60;;;;;;;4.14;92.89;100385.22;213457;1275;68070;-78
2023/01/14 04:04:28;;;;;;;14.00;8.70;;;;;;;4.04;92.71;100388.27;213558;1272;61371;-78
2023/01/14 04:09:21;;;;;;;14.30;8.90;;;;;;;3.93;92.74;100389.21;213521;1273;74616;-78
2023/01/14 04:19:24;;;;;;;13.20;9.00;;;;;;;3.75;92.80;100390.45;213441;1276;61338;-78
2023/01/14 04:24:17;;;;;;;11.90;8.60;;;;;;;3.65;92.82;100392.41;213500;1275;67068;-78
2023/01/14 04:29:10;;;;;;;10.30;8.00;;;;;;;3.59;92.89;100395.11;213484;1270;61466;-78
2023/01/14 04:34:03;;;;;;;11.40;7.50;;;;;;;3.52;92.73;100399.44;213525;1271;75461;-77
2023/01/14 04:38:56;;;;;;;10.70;7.60;;;;;;;3.43;92.80;100400.45;213287;1270;61330;-78
2023/01/14 04:43:49;;;;;;;11.00;7.30;;;;;;;3.32;92.50;100413.21;213601;1270;61390;-78
2023/01/14 04:48:42;;;;;;;9.00;6.40;;;;;;;3.25;92.66;100415.83;213459;1271;61380;-78
2023/01/14 04:53:35;;;;;;;8.30;6.60;;;;;;;3.18;92.38;100425.84;213442;1275;61718;-78
2023/01/14 04:58:28;;;;;;;10.40;6.80;;;;;;;3.07;92.23;100421.42;213502;1273;61397;-78
2023/01/14 05:03:21;;;;;;;9.30;7.00;;;;;;;2.97;91.98;100424.42;213421;1273;61313;-78
2023/01/14 05:08:14;;;;;;;12.10;7.20;;;;;;;2.86;91.72;100427.36;213602;1271;61476;-78
2023/01/14 05:13:08;;;;;;;9.20;6.80;;;;;;;2.75;91.60;100425.84;213468;1276;67085;-78
2023/01/14 05:18:31;;;;;;;9.00;6.20;;;;;;;2.69;91.61;100425.77;213607;1271;61297;-79
2023/01/14 05:23:47;;;;;;;10.60;7.20;;;;;;;2.74;92.14;100433.16;213523;1272;74694;-79
2023/01/14 05:28:55;;;;;;;7.80;5.90;;;;;;;2.84;92.29;100438.55;213624;1270;73556;-78
2023/01/14 05:34:01;;;;;;;9.50;7.00;;;;;;;2.91;92.43;100442.13;213358;1270;61315;-78
2023/01/14 05:38:53;;;;;;;9.50;7.10;;;;;;;2.97;92.28;100450.43;213526;1274;61290;-78
2023/01/14 05:48:57;;;;;;;11.60;7.30;;;;;;;3.16;92.83;100458.11;213485;1270;75632;-78
2023/01/14 05:53:50;;;;;;;7.70;6.30;;;;;;;3.26;93.10;100464.69;213364;1271;61628;-78
2023/01/14 05:58:43;;;;;;;9.80;6.50;;;;;;;3.32;93.18;100474.04;213552;1274;61400;-78
2023/01/14 06:08:47;;;;;;;8.70;6.70;;;;;;;3.32;92.82;100475.75;213387;1270;61451;-78
2023/01/14 06:13:40;;;;;;;10.80;6.80;;;;;;;3.28;92.63;100479.84;213446;1271;61304;-78
2023/01/14 06:18:38;;;;;;;8.20;6.10;;;;;;;3.30;93.12;100478.03;213441;1274;73509;-78
2023/01/14 06:23:30;;;;;;;9.80;6.30;;;;;;;3.30;92.74;100484.05;213459;1273;61255;-78
2023/01/14 06:28:23;;;;;;;7.30;5.90;;;;;;;3.24;92.56;100488.08;213455;1275;61547;-77
2023/01/14 06:33:16;;;;;;;10.20;6.60;;;;;;;3.15;92.80;100500.36;213362;1276;61279;-78
2023/01/14 06:38:11;;;;;;;10.60;6.00;;;;;;;3.08;92.85;100509.13;213442;1276;61464;-78
2023/01/14 06:43:05;;;;;;;13.50;6.30;;;;;;;3.07;92.89;100516.12;213303;1271;71383;-78
2023/01/14 06:47:57;;;;;;;6.40;5.20;;;;;;;3.11;92.93;100519.88;213308;1275;61274;-78
2023/01/14 06:52:52;;;;;;;8.20;5.80;;;;;;;3.16;92.93;100522.67;213452;1276;61295;-78
2023/01/14 06:57:45;;;;;;;8.50;6.60;;;;;;;3.23;92.93;100526.06;213387;1275;61401;-78
2023/01/14 07:02:39;;;;;;;8.70;5.80;;;;;;;3.29;92.92;100525.10;213512;1273;74291;-78
2023/01/14 07:07:32;;;;;;;10.70;5.80;;;;;;;3.36;93.03;100528.16;213435;1275;70827;-78
2023/01/14 07:12:25;;;;;;;8.90;5.70;;;;;;;3.40;93.05;100530.23;213479;1273;61326;-78
2023/01/14 07:17:18;;;;;;;10.80;6.00;;;;;;;3.43;92.69;100536.35;213447;1273;61588;-78
2023/01/14 07:22:11;;;;;;;9.10;4.70;;;;;;;3.49;92.80;100545.85;213432;1275;61310;-78
2023/01/14 07:27:05;;;;;;;6.80;5.20;;;;;;;3.55;92.96;100543.20;213490;1273;61377;-78
2023/01/14 07:31:58;;;;;;;7.00;5.00;;;;;;;3.65;92.86;100550.65;213505;1270;73197;-78
2023/01/14 07:36:51;;;;;;;8.50;5.50;;;;;;;3.77;92.62;100563.83;213395;1274;61308;-78
2023/01/14 07:41:44;;;;;;;7.20;5.40;;;;;;;3.89;92.68;100570.16;213340;1276;61323;-78
2023/01/14 07:46:45;;;;;;;10.70;4.80;;;;;;;3.98;92.68;100575.14;213411;1273;61304;-78
2023/01/14 07:51:38;;;;;;;7.70;4.60;;;;;;;4.07;92.69;100576.05;213477;1273;61418;-78
2023/01/14 07:56:31;;;;;;;7.80;5.00;;;;;;;4.18;92.53;100586.61;213560;1273;61307;-78
2023/01/14 08:01:24;;;;;;;6.00;4.90;;;;;;;4.33;92.60;100588.06;213483;1274;61372;-78
2023/01/14 08:06:17;;;;;;;8.00;5.00;;;;;;;4.49;92.11;100595.05;213049;1276;61948;-79
2023/01/14 08:11:10;;;;;;;6.40;4.60;;;;;;;4.63;91.77;100598.70;213518;1272;61375;-79
2023/01/14 08:16:04;;;;;;;7.70;5.40;;;;;;;4.78;91.59;100598.59;213303;1273;61413;-78
2023/01/14 08:21:04;;;;;;;8.40;4.60;;;;;;;4.89;91.28;100604.34;213499;1273;73762;-78
2023/01/14 08:26:05;;;;;;;9.50;5.60;;;;;;;5.03;91.00;100606.38;213404;1273;61482;-78
2023/01/14 08:31:07;;;;;;;7.10;4.30;;;;;;;5.12;90.53;100610.33;213408;1272;66415;-78
2023/01/14 08:36:06;;;;;;;7.60;4.70;;;;;;;5.14;90.12;100620.38;213221;1273;61435;-78
2023/01/14 08:40:59;;;;;;;6.30;4.50;;;;;;;5.11;90.14;100625.25;213312;1272;74640;-78
2023/01/14 08:45:52;;;;;;;5.40;4.50;;;;;;;5.02;90.03;100629.55;213360;1273;72333;-79
2023/01/14 08:50:45;;;;;;;8.10;4.20;;;;;;;4.96;90.20;100634.50;213253;1273;61437;-77
2023/01/14 08:55:38;;;;;;;7.30;3.70;;;;;;;4.96;90.17;100636.52;213514;1273;61303;-78
2023/01/14 09:00:31;;;;;;;6.60;4.10;;;;;;;5.00;90.08;100638.05;213069;1273;66223;-77
2023/01/14 09:05:24;;;;;;;4.90;3.10;;;;;;;5.06;90.08;100641.37;213672;1270;61309;-78
2023/01/14 09:20:42;;;;;;;7.70;3.70;;;;;;;5.32;89.59;100650.43;212502;1276;68957;-78
2023/01/14 09:25:35;;;;;;;8.10;3.90;;;;;;;5.42;89.29;100656.12;212423;1279;61435;-77
2023/01/14 09:30:29;;;;;;;6.90;3.40;;;;;;;5.47;88.92;100656.83;212558;1276;74610;-76
2023/01/14 09:35:23;;;;;;;7.10;4.20;;;;;;;5.52;88.60;100652.88;212519;1276;73993;-77
2023/01/14 09:40:17;;;;;;;7.00;3.90;;;;;;;5.55;88.50;100652.66;212461;1276;61278;-77
2023/01/14 09:45:14;;;;;;;6.30;3.80;;;;;;;5.59;88.30;100652.98;212470;1276;68177;-77
2023/01/14 09:50:08;;;;;;;;;;;;;;;5.62;88.00;100654.29;212580;1276;61409;-78
2023/01/14 09:55:30;;;;;;;6.40;3.80;;;;;;;5.67;87.59;100655.31;212749;1276;74742;-77
2023/01/14 10:00:44;;;;;;;4.80;3.10;;;;;;;6.02;86.91;100657.57;213383;1276;71512;-78
2023/01/14 10:05:40;;;;;;;6.60;3.70;;;;;;;6.27;86.48;100658.95;213611;1273;61355;-78
2023/01/14 10:10:40;;;;;;;4.80;3.80;;;;;;;6.25;86.21;100655.97;213650;1270;68355;-78
2023/01/14 10:16:05;;;;;;;7.70;3.30;;;;;;;6.21;86.23;100651.54;213704;1272;61294;-78
2023/01/14 10:21:12;;;;;;;5.10;3.70;;;;;;;6.31;85.88;100650.98;213558;1270;74679;-79
2023/01/14 10:26:18;;;;;;;6.30;3.70;;;;;;;6.61;85.44;100652.68;213548;1270;72603;-79
2023/01/14 10:31:19;;;;;;;5.10;3.20;;;;;;;6.85;85.02;100655.98;213406;1270;61489;-78
2023/01/14 10:36:18;;;;;;;3.90;3.00;;;;;;;7.08;84.88;100649.11;213529;1270;67615;-77
2023/01/14 10:41:13;;;;;;;6.60;3.80;;;;;;;7.37;84.50;100649.45;213739;1271;61345;-78
2023/01/14 10:46:23;;;;;;;8.90;4.10;;;;;;;7.73;83.71;100648.91;213582;1273;75461;-77
2023/01/14 10:51:35;;;;;;;7.80;4.30;;;;;;;8.33;82.61;100641.48;213494;1270;72410;-78
2023/01/14 10:56:28;;;;;;;7.40;3.70;;;;;;;8.56;82.30;100635.67;213584;1270;61425;-77
2023/01/14 11:01:43;;;;;;;6.00;3.60;;;;;;;8.79;81.24;100632.27;213625;1271;67423;-78
2023/01/14 11:06:47;;;;;;;7.50;3.50;;;;;;;8.74;81.32;100627.80;213716;1270;61342;-79
2023/01/14 11:11:42;;;;;;;7.60;3.20;;;;;;;8.38;81.61;100633.33;213737;1271;74978;-78
2023/01/14 11:16:38;;;;;;;5.60;4.10;;;;;;;8.35;81.83;100632.71;213554;1270;119830;-79
2023/01/14 11:21:42;;;;;;;6.20;3.40;;;;;;;8.57;81.42;100630.17;213975;1270;64355;-78
2023/01/14 11:26:41;;;;;;;7.10;3.80;;;;;;;8.57;81.38;100628.13;213843;1270;67132;-78
2023/01/14 11:31:38;;;;;;;11.50;4.00;;;;;;;8.58;81.13;100620.19;213719;1270;61354;-78
2023/01/14 11:36:33;;;;;;;6.70;3.70;;;;;;;8.49;80.79;100617.89;213700;1270;74703;-78
2023/01/14 11:41:34;;;;;;;6.40;3.50;;;;;;;8.42;80.74;100617.89;213508;1273;74706;-78
2023/01/14 11:46:30;;;;;;;5.40;3.00;;;;;;;8.29;80.96;100622.73;213532;1270;61316;-78
2023/01/14 11:51:24;;;;;;;6.40;3.20;;;;;;;8.17;80.70;100618.46;213667;1270;65819;-78
2023/01/14 11:56:40;;;;;;;5.80;3.00;;;;;;;8.25;80.63;100616.40;213727;1270;61236;-78
2023/01/14 12:02:06;;;;;;;4.10;2.50;;;;;;;8.34;80.78;100618.72;213646;1270;75673;-78
2023/01/14 12:07:17;;;;;;;5.60;2.80;;;;;;;8.25;80.74;100614.88;213500;1273;72335;-77
2023/01/14 12:12:19;;;;;;;6.60;3.60;;;;;;;8.05;80.81;100617.98;213589;1269;61377;-76
2023/01/14 12:17:34;;;;;;;6.00;3.20;;;;;;;7.92;80.92;100611.11;213276;1270;68115;-77
2023/01/14 12:22:35;;;;;;;5.50;2.60;;;;;;;7.89;80.90;100609.81;213353;1270;61406;-76
2023/01/14 12:27:43;;;;;;;5.60;2.50;;;;;;;7.95;80.52;100604.27;213566;1269;74679;-76
2023/01/14 12:32:38;;;;;;;4.90;3.10;;;;;;;7.99;80.65;100599.73;213620;1270;71244;-76
2023/01/14 12:37:50;;;;;;;4.10;3.10;;;;;;;7.98;80.37;100602.30;213556;1270;61828;-77
2023/01/14 12:48:01;;;;;;;5.80;3.00;;;;;;;8.02;80.74;100601.70;213656;1270;61463;-77
2023/01/14 12:52:55;;;;;;;5.70;3.60;;;;;;;7.98;80.38;100604.70;213625;1270;74435;-77
2023/01/14 12:57:51;;;;;;;6.30;3.30;;;;;;;7.91;80.44;100608.30;213545;1270;73563;-76
2023/01/14 13:02:48;;;;;;;6.80;3.30;;;;;;;7.87;80.42;100605.80;213376;1269;61403;-76
2023/01/14 13:07:55;;;;;;;7.10;4.30;;;;;;;7.86;80.33;100605.60;213531;1270;67184;-76
2023/01/14 13:12:49;;;;;;;6.60;3.60;;;;;;;7.81;80.43;100604.42;213658;1270;61375;-77
2023/01/14 13:17:45;;;;;;;7.60;4.10;;;;;;;7.80;80.49;100596.46;213583;1272;74968;-76
2023/01/14 13:22:48;;;;;;;5.60;4.00;;;;;;;7.87;80.72;100599.23;213558;1270;72676;-77
2023/01/14 13:27:43;;;;;;;5.00;3.60;;;;;;;7.94;80.50;100597.87;213569;1270;61776;-77
2023/01/14 13:33:02;;;;;;;10.10;4.80;;;;;;;7.82;80.26;100604.13;213515;1270;66815;-77
2023/01/14 13:37:58;;;;;;;7.30;3.30;;;;;;;7.67;80.49;100607.51;213425;1270;61295;-77
2023/01/14 13:42:58;;;;;;;5.10;3.10;;;;;;;7.57;80.58;100608.95;213552;1270;74794;-77
2023/01/14 13:47:52;;;;;;;5.80;3.50;;;;;;;7.53;80.65;100606.42;213515;1270;73038;-76
2023/01/14 13:52:56;;;;;;;6.20;3.20;;;;;;;7.49;80.43;100607.02;213561;1270;61432;-77
2023/01/14 13:57:51;;;;;;;7.60;3.80;;;;;;;7.47;80.30;100600.59;213577;1270;67126;-77
2023/01/14 14:02:52;;;;;;;7.40;4.10;;;;;;;7.42;80.42;100604.93;213617;1273;61284;-77
2023/01/14 14:07:45;;;;;;;9.30;4.80;;;;;;;7.32;80.62;100600.86;213705;1270;72464;-77
2023/01/14 14:18:02;;;;;;;7.90;5.20;;;;;;;7.08;81.08;100606.55;213711;1270;61249;-77
2023/01/14 14:23:02;;;;;;;7.90;5.50;;;;;;;6.94;81.13;100602.14;213496;1270;67268;-77
2023/01/14 14:27:57;;;;;;;8.90;5.30;;;;;;;6.78;81.39;100594.61;213507;1273;61383;-76
2023/01/14 14:32:52;;;;;;;12.80;6.20;;;;;;;6.61;81.42;100598.24;213598;1270;73881;-77
2023/01/14 14:37:54;;;;;;;8.90;6.00;;;;;;;6.44;81.66;100599.96;213510;1270;73346;-77
2023/01/14 14:42:49;;;;;;;13.90;5.60;;;;;;;6.26;81.82;100600.23;213558;1270;61327;-77
2023/01/14 14:47:45;;;;;;;10.60;6.00;;;;;;;6.09;82.33;100611.56;213655;1270;68518;-77
2023/01/14 14:52:38;;;;;;;10.50;6.90;;;;;;;6.01;82.60;100604.91;213445;1270;61368;-77
2023/01/14 14:57:32;;;;;;;7.90;5.70;;;;;;;5.93;82.75;100598.45;213719;1270;74637;-77
2023/01/14 15:02:40;;;;;;;9.40;5.60;;;;;;;5.87;82.83;100596.67;213550;1270;73441;-77
2023/01/14 15:07:33;;;;;;;7.90;5.90;;;;;;;5.80;83.05;100598.14;213669;1270;61317;-77
2023/01/14 15:12:26;;;;;;;9.90;6.00;;;;;;;5.71;83.24;100595.95;213734;1270;66984;-77
2023/01/14 15:17:20;;;;;;;8.70;6.20;;;;;;;5.63;83.54;100596.17;213566;1270;61393;-77
2023/01/14 15:22:16;;;;;;;11.30;6.40;;;;;;;5.54;83.67;100591.90;213729;1270;75999;-77
2023/01/14 15:27:16;;;;;;;13.90;9.70;;;;;;;5.44;83.78;100584.01;213704;1270;73081;-77
2023/01/14 15:32:33;;;;;;;13.90;8.60;;;;;;;5.31;83.88;100580.95;213605;1270;61374;-77
2023/01/14 15:37:28;;;;;;;13.50;7.50;;;;;;;5.12;83.95;100584.75;213594;1270;67143;-77
2023/01/14 15:42:26;;;;;;;14.70;7.90;;;;;;;4.92;84.12;100590.03;213706;1271;61254;-77
2023/01/14 15:47:21;;;;;;;12.40;7.30;;;;;;;4.76;84.36;100587.48;213641;1270;74706;-77
2023/01/14 15:52:31;;;;;;;13.30;8.80;;;;;;;4.59;84.55;100587.71;213688;1270;71946;-77
2023/01/14 15:57:45;;;;;;;13.00;8.80;;;;;;;4.43;84.57;100580.23;213684;1270;61525;-77
2023/01/14 16:02:39;;;;;;;14.20;8.80;;;;;;;4.29;84.86;100579.48;213519;1270;67261;-77
2023/01/14 16:07:32;;;;;;;11.40;7.10;;;;;;;4.18;84.94;100586.81;213494;1273;61593;-78
2023/01/14 16:12:25;;;;;;;11.70;7.70;;;;;;;4.09;85.18;100591.55;213482;1273;61284;-77
2023/01/14 16:17:20;;;;;;;10.00;6.90;;;;;;;3.95;84.91;100587.20;213439;1272;61332;-77
2023/01/14 16:22:13;;;;;;;12.50;6.80;;;;;;;3.76;84.58;100579.57;213270;1273;62010;-77
2023/01/14 16:27:15;;;;;;;12.60;8.60;;;;;;;3.65;85.03;100573.07;213481;1273;65922;-77
2023/01/14 16:32:11;;;;;;;11.00;7.70;;;;;;;3.55;85.23;100571.98;213405;1270;61402;-77
2023/01/14 16:37:04;;;;;;;11.70;7.50;;;;;;;3.44;85.11;100569.80;213524;1273;73512;-77
2023/01/14 16:41:58;;;;;;;15.20;8.60;;;;;;;3.31;84.99;100565.79;213496;1273;61425;-77
2023/01/14 16:46:50;;;;;;;11.80;8.20;;;;;;;3.16;84.95;100560.02;213463;1274;61335;-77
2023/01/14 16:51:44;;;;;;;12.30;8.30;;;;;;;3.08;85.38;100564.09;213476;1273;61394;-77
2023/01/14 16:56:38;;;;;;;12.40;8.90;;;;;;;2.96;85.18;100563.09;213740;1272;61311;-77
2023/01/14 17:01:30;;;;;;;13.70;7.50;;;;;;;2.86;85.14;100556.13;213646;1271;61400;-77
2023/01/14 17:06:24;;;;;;;12.60;9.20;;;;;;;2.77;85.24;100553.99;213659;1270;61298;-77
2023/01/14 17:16:27;;;;;;;21.60;14.20;;;;;;;2.67;85.63;100554.23;213614;1271;65598;-77
2023/01/14 17:21:20;;;;;;;24.30;14.90;;;;;;;2.63;85.81;100552.33;213627;1270;61234;-77
2023/01/14 17:26:14;;;;;;;27.60;18.20;;;;;;;2.56;85.61;100543.80;213560;1270;61336;-77
2023/01/14 17:31:08;;;;;;;31.50;19.10;;;;;;;2.50;85.68;100531.87;213648;1270;72903;-76
2023/01/14 17:36:08;;;;;;;29.20;19.60;;;;;;;2.45;85.79;100522.91;213720;1270;61306;-77
2023/01/14 17:41:02;;;;;;;25.70;17.90;;;;;;;2.39;86.06;100518.20;213646;1270;68519;-77
2023/01/14 17:45:58;;;;;;;25.30;17.20;;;;;;;2.28;85.64;100522.47;213716;1270;61735;-77
2023/01/14 17:50:51;;;;;;;34.40;20.30;;;;;;;2.18;85.81;100517.54;213677;1270;75112;-77
2023/01/14 17:55:44;;;;;;;29.50;18.20;;;;;;;2.14;86.16;100516.00;213602;1270;61313;-77
2023/01/14 18:00:37;;;;;;;29.00;17.70;;;;;;;2.12;86.15;100507.34;213677;1270;61710;-77
2023/01/14 18:05:29;;;;;;;31.30;18.90;;;;;;;2.07;86.20;100503.19;213736;1270;61399;-77
2023/01/14 18:10:22;;;;;;;35.40;20.50;;;;;;;2.04;86.31;100494.63;213679;1270;61281;-77
2023/01/14 18:15:15;;;;;;;26.20;17.20;;;;;;;2.04;86.62;100484.58;213655;1270;61284;-77
2023/01/14 18:20:10;;;;;;;26.00;17.70;;;;;;;2.00;86.73;100489.66;213632;1270;61358;-77
2023/01/14 18:25:03;;;;;;;26.20;16.70;;;;;;;2.07;87.70;100484.56;213694;1269;61411;-77
2023/01/14 18:29:56;;;;;;;27.10;17.50;;;;;;;2.09;87.16;100472.48;213616;1270;65683;-77
2023/01/14 18:34:49;;;;;;;26.90;17.10;;;;;;;2.07;87.42;100457.19;213612;1270;61422;-77
2023/01/14 18:39:42;;;;;;;32.90;19.90;;;;;;;2.16;87.92;100445.29;213462;1270;61279;-77
2023/01/14 18:44:34;;;;;;;33.40;20.00;;;;;;;2.19;88.24;100429.55;213693;1270;61323;-77
2023/01/14 18:49:28;;;;;;;32.40;17.80;;;;;;;2.30;88.82;100420.60;213644;1270;61397;-77
2023/01/14 18:54:21;;;;;;;30.40;19.70;;;;;;;2.36;88.72;100426.89;213749;1270;61371;-77
2023/01/14 18:59:14;;;;;;;34.60;20.10;;;;;;;2.47;89.02;100433.16;213571;1270;61300;-77
2023/01/14 19:04:07;;;;;;;37.30;22.30;;;;;;;2.49;88.52;100437.06;213683;1270;61297;-77
2023/01/14 19:09:00;;;;;;;33.10;20.60;;;;;;;2.52;88.48;100426.21;213636;1270;61241;-77
2023/01/14 19:13:54;;;;;;;31.70;18.50;;;;;;;2.51;88.60;100421.56;213696;1270;61239;-77
2023/01/14 19:18:47;;;;;;;34.20;20.00;;;;;;;2.55;88.99;100415.25;213664;1269;67842;-77
2023/01/14 19:23:41;;;;;;;33.90;19.00;;;;;;;2.57;88.69;100402.84;213671;1270;61762;-77
2023/01/14 19:28:34;;;;;;;26.90;17.00;;;;;;;2.54;88.79;100390.05;213690;1271;74625;-76
2023/01/14 19:33:27;;;;;;;27.30;17.80;;;;;;;2.53;88.79;100379.55;213670;1270;72653;-76
2023/01/14 19:38:20;;;;;;;29.60;20.50;;;;;;;2.54;89.18;100378.91;213579;1271;61390;-77
2023/01/14 19:43:13;;;;;;;29.00;18.50;;;;;;;2.55;89.33;100370.73;213559;1270;66029;-76
2023/01/14 19:48:21;;;;;;;28.40;19.50;;;;;;;2.54;88.96;100372.94;213397;1270;61276;-78
2023/01/14 19:53:23;;;;;;;29.30;19.80;;;;;;;2.56;89.44;100360.54;213440;1270;75546;-77
2023/01/14 19:58:16;;;;;;;35.40;20.90;;;;;;;2.64;89.81;100350.30;213460;1270;72606;-77
2023/01/14 20:03:12;;;;;;;30.30;19.80;;;;;;;2.66;89.20;100350.02;213741;1270;61306;-77
2023/01/14 20:08:06;;;;;;;34.70;21.50;;;;;;;2.66;89.26;100351.23;213729;1270;66141;-77
2023/01/14 20:12:59;;;;;;;31.70;20.30;;;;;;;2.66;89.53;100346.61;213658;1270;61492;-77
2023/01/14 20:23:22;;;;;;;26.50;17.10;;;;;;;2.68;89.26;100335.88;213610;1270;72755;-77
2023/01/14 20:28:27;;;;;;;29.80;19.90;;;;;;;2.74;89.35;100330.46;213607;1272;61262;-77
2023/01/14 20:33:29;;;;;;;21.00;14.70;;;;;;;2.75;89.57;100320.95;213711;1270;68464;-77
2023/01/14 20:38:23;;;;;;;27.40;18.70;;;;;;;2.80;89.64;100315.86;213420;1271;61431;-77
2023/01/14 20:43:21;;;;;;;34.30;18.80;;;;;;;2.83;89.25;100317.50;213654;1273;74566;-77
2023/01/14 20:48:28;;;;;;;28.10;18.10;;;;;;;2.86;89.48;100304.61;213745;1269;72573;-77
2023/01/14 20:53:37;;;;;;;29.90;17.80;;;;;;;2.89;89.45;100299.77;213654;1271;61277;-77
2023/01/14 21:03:55;;;;;;;25.80;16.10;;;;;;;2.97;89.59;100304.90;213676;1270;61281;-77
2023/01/14 21:08:48;;;;;;;22.70;16.20;;;;;;;2.96;89.18;100304.16;213534;1270;75734;-78
2023/01/14 21:24:03;;;;;;;26.80;17.50;;;;;;;2.89;89.07;100285.09;213653;1273;67798;-76
2023/01/14 21:28:56;;;;;;;31.50;17.20;;;;;;;2.90;89.44;100276.88;213677;1270;61751;-76
2023/01/14 21:33:49;;;;;;;30.00;17.20;;;;;;;2.89;89.35;100284.04;213746;1270;75791;-78
2023/01/14 21:38:42;;;;;;;25.50;16.60;;;;;;;2.89;89.34;100281.97;213676;1273;72670;-76
2023/01/14 21:43:36;;;;;;;30.30;17.90;;;;;;;2.88;89.19;100272.16;213725;1270;61135;-76
2023/01/14 21:48:29;;;;;;;28.00;17.00;;;;;;;2.84;89.04;100260.70;213588;1270;64964;-77
2023/01/14 21:53:23;;;;;;;27.20;16.80;;;;;;;2.84;89.72;100255.04;213574;1270;61333;-77
2023/01/14 21:58:20;;;;;;;23.00;15.50;;;;;;;2.86;89.47;100254.83;213794;1270;75751;-76
2023/01/14 22:03:16;;;;;;;26.20;17.30;;;;;;;2.87;89.43;100246.46;213525;1271;71408;-76
2023/01/14 22:08:11;;;;;;;25.70;14.80;;;;;;;2.92;89.42;100234.67;213723;1270;61329;-76
2023/01/14 22:13:06;;;;;;;25.70;16.90;;;;;;;2.94;89.24;100226.85;213776;1270;67140;-77
2023/01/14 22:18:01;;;;;;;24.60;15.90;;;;;;;2.94;89.41;100216.98;213668;1273;61317;-77
2023/01/14 22:22:57;;;;;;;22.60;15.20;;;;;;;2.96;89.10;100210.17;213811;1270;74575;-77
2023/01/14 22:27:50;;;;;;;27.90;16.50;;;;;;;3.00;89.23;100196.63;213796;1270;73484;-78
2023/01/14 22:32:43;;;;;;;23.80;15.70;;;;;;;3.03;89.16;100183.06;213727;1270;61347;-77
2023/01/14 22:37:36;;;;;;;23.90;14.80;;;;;;;3.04;88.88;100170.98;213756;1273;61282;-78
2023/01/14 22:42:29;;;;;;;26.70;14.80;;;;;;;3.07;88.73;100166.94;213640;1270;61312;-77
2023/01/14 22:47:26;;;;;;;23.20;14.20;;;;;;;3.07;88.81;100154.44;213553;1273;73500;-78
2023/01/14 22:52:19;;;;;;;23.30;14.60;;;;;;;3.09;88.55;100141.17;213281;1270;73264;-77
2023/01/14 22:57:13;;;;;;;23.70;14.70;;;;;;;3.12;88.39;100126.86;213609;1270;61243;-78
2023/01/14 23:02:09;;;;;;;23.80;15.50;;;;;;;3.13;88.35;100116.30;213487;1271;67126;-77
2023/01/14 23:07:03;;;;;;;21.40;13.80;;;;;;;3.16;88.27;100109.40;213543;1273;61322;-78
2023/01/14 23:12:16;;;;;;;23.30;15.40;;;;;;;3.18;87.87;100098.70;213455;1273;75535;-77
2023/01/14 23:17:29;;;;;;;25.10;14.60;;;;;;;3.22;87.97;100094.39;213296;1276;149934;-77
2023/01/14 23:27:35;;;;;;;22.20;13.30;;;;;;;3.28;87.24;100074.89;213271;1273;65134;-77
2023/01/14 23:32:29;;;;;;;23.60;13.20;;;;;;;3.31;86.98;100061.48;213499;1273;61250;-78
2023/01/14 23:37:22;;;;;;;20.60;13.30;;;;;;;3.35;86.73;100041.41;213608;1274;74835;-77
2023/01/14 23:42:15;;;;;;;21.40;13.70;;;;;;;3.39;86.73;100039.84;213633;1273;71423;-77
2023/01/14 23:47:27;;;;;;;20.90;13.10;;;;;;;3.41;86.38;100029.13;213552;1273;61253;-77
2023/01/14 23:52:21;;;;;;;19.80;12.60;;;;;;;3.46;86.20;100024.64;213474;1273;61371;-77
2023/01/14 23:57:14;;;;;;;19.80;11.90;;;;;;;3.49;86.29;100013.59;213384;1273;61323;-77
